sensor_id;sensor_type;location;lat;lon;timestamp;P1;durP1;ratioP1;P2;durP2;ratioP2
80559;SDS011;70065;42.700;23.316;2023-05-10T00:01:47;4.25;;;2.50;;
80559;SDS011;70065;42.700;23.316;2023-05-10T00:04:13;3.63;;;2.40;;
80559;SDS011;70065;42.700;23.316;2023-05-10T00:06:39;3.95;;;2.75;;
80559;SDS011;70065;42.700;23.316;2023-05-10T00:09:04;4.18;;;2.92;;
80559;SDS011;70065;42.700;23.316;2023-05-10T00:11:30;5.03;;;2.80;;
80559;SDS011;70065;42.700;23.316;2023-05-10T00:13:56;4.65;;;2.90;;
80559;SDS011;70065;42.700;23.316;2023-05-10T00:16:22;4.22;;;2.83;;
80559;SDS011;70065;42.700;23.316;2023-05-10T00:18:48;4.55;;;2.72;;
80559;SDS011;70065;42.700;23.316;2023-05-10T00:21:13;3.47;;;2.67;;
80559;SDS011;70065;42.700;23.316;2023-05-10T00:23:39;3.90;;;2.58;;
80559;SDS011;70065;42.700;23.316;2023-05-10T00:26:05;3.38;;;2.55;;
80559;SDS011;70065;42.700;23.316;2023-05-10T00:28:31;5.25;;;2.80;;
80559;SDS011;70065;42.700;23.316;2023-05-10T00:30:57;3.83;;;2.72;;
80559;SDS011;70065;42.700;23.316;2023-05-10T00:33:22;5.47;;;3.28;;
80559;SDS011;70065;42.700;23.316;2023-05-10T00:35:48;4.97;;;2.88;;
80559;SDS011;70065;42.700;23.316;2023-05-10T00:38:15;4.00;;;2.72;;
80559;SDS011;70065;42.700;23.316;2023-05-10T00:40:40;5.50;;;2.90;;
80559;SDS011;70065;42.700;23.316;2023-05-10T00:43:07;3.03;;;2.67;;
80559;SDS011;70065;42.700;23.316;2023-05-10T00:45:33;3.38;;;2.80;;
80559;SDS011;70065;42.700;23.316;2023-05-10T00:48:01;3.95;;;3.03;;
80559;SDS011;70065;42.700;23.316;2023-05-10T00:50:29;4.07;;;2.67;;
80559;SDS011;70065;42.700;23.316;2023-05-10T00:52:56;4.00;;;2.78;;
80559;SDS011;70065;42.700;23.316;2023-05-10T00:55:23;5.00;;;2.97;;
80559;SDS011;70065;42.700;23.316;2023-05-10T00:57:49;3.92;;;2.88;;
80559;SDS011;70065;42.700;23.316;2023-05-10T01:00:15;3.72;;;2.80;;
80559;SDS011;70065;42.700;23.316;2023-05-10T01:02:44;3.85;;;2.97;;
80559;SDS011;70065;42.700;23.316;2023-05-10T01:05:11;3.53;;;2.70;;
80559;SDS011;70065;42.700;23.316;2023-05-10T01:07:38;4.00;;;2.75;;
80559;SDS011;70065;42.700;23.316;2023-05-10T01:10:05;3.65;;;3.00;;
80559;SDS011;70065;42.700;23.316;2023-05-10T01:12:33;3.80;;;2.90;;
80559;SDS011;70065;42.700;23.316;2023-05-10T01:15:02;4.82;;;2.75;;
80559;SDS011;70065;42.700;23.316;2023-05-10T01:17:28;3.63;;;2.90;;
80559;SDS011;70065;42.700;23.316;2023-05-10T01:19:55;3.53;;;2.85;;
80559;SDS011;70065;42.700;23.316;2023-05-10T01:27:55;5.03;;;3.22;;
80559;SDS011;70065;42.700;23.316;2023-05-10T01:35:43;3.42;;;2.53;;
80559;SDS011;70065;42.700;23.316;2023-05-10T01:43:22;3.38;;;2.80;;
80559;SDS011;70065;42.700;23.316;2023-05-10T01:45:59;3.65;;;2.72;;
80559;SDS011;70065;42.700;23.316;2023-05-10T01:48:35;2.92;;;2.60;;
80559;SDS011;70065;42.700;23.316;2023-05-10T01:51:11;3.65;;;2.78;;
80559;SDS011;70065;42.700;23.316;2023-05-10T01:53:38;3.80;;;2.95;;
80559;SDS011;70065;42.700;23.316;2023-05-10T01:56:05;4.65;;;3.10;;
80559;SDS011;70065;42.700;23.316;2023-05-10T01:58:34;3.28;;;2.72;;
80559;SDS011;70065;42.700;23.316;2023-05-10T02:01:03;5.32;;;3.30;;
80559;SDS011;70065;42.700;23.316;2023-05-10T02:03:31;4.25;;;2.92;;
80559;SDS011;70065;42.700;23.316;2023-05-10T02:05:59;4.80;;;3.08;;
80559;SDS011;70065;42.700;23.316;2023-05-10T02:08:26;4.03;;;2.70;;
80559;SDS011;70065;42.700;23.316;2023-05-10T02:10:54;4.93;;;3.20;;
80559;SDS011;70065;42.700;23.316;2023-05-10T02:13:21;3.78;;;2.83;;
80559;SDS011;70065;42.700;23.316;2023-05-10T02:15:49;3.88;;;2.63;;
80559;SDS011;70065;42.700;23.316;2023-05-10T02:18:16;4.22;;;2.78;;
80559;SDS011;70065;42.700;23.316;2023-05-10T02:20:44;3.92;;;2.80;;
80559;SDS011;70065;42.700;23.316;2023-05-10T02:23:11;3.42;;;2.75;;
80559;SDS011;70065;42.700;23.316;2023-05-10T02:25:38;4.38;;;2.92;;
80559;SDS011;70065;42.700;23.316;2023-05-10T02:28:06;4.13;;;2.83;;
80559;SDS011;70065;42.700;23.316;2023-05-10T02:30:33;4.78;;;3.33;;
80559;SDS011;70065;42.700;23.316;2023-05-10T02:33:00;3.47;;;2.88;;
80559;SDS011;70065;42.700;23.316;2023-05-10T02:35:27;3.83;;;3.00;;
80559;SDS011;70065;42.700;23.316;2023-05-10T02:37:54;3.45;;;2.78;;
80559;SDS011;70065;42.700;23.316;2023-05-10T02:40:21;4.80;;;3.20;;
80559;SDS011;70065;42.700;23.316;2023-05-10T02:42:50;3.80;;;2.80;;
80559;SDS011;70065;42.700;23.316;2023-05-10T02:45:20;4.18;;;3.00;;
80559;SDS011;70065;42.700;23.316;2023-05-10T02:47:49;3.92;;;2.92;;
80559;SDS011;70065;42.700;23.316;2023-05-10T02:50:15;4.60;;;3.08;;
80559;SDS011;70065;42.700;23.316;2023-05-10T02:52:48;4.43;;;3.20;;
80559;SDS011;70065;42.700;23.316;2023-05-10T02:55:19;3.83;;;3.20;;
80559;SDS011;70065;42.700;23.316;2023-05-10T02:57:48;3.42;;;2.83;;
80559;SDS011;70065;42.700;23.316;2023-05-10T03:00:19;4.20;;;3.25;;
80559;SDS011;70065;42.700;23.316;2023-05-10T03:02:45;4.05;;;3.33;;
80559;SDS011;70065;42.700;23.316;2023-05-10T03:05:12;3.33;;;2.58;;
80559;SDS011;70065;42.700;23.316;2023-05-10T03:07:38;4.53;;;2.80;;
80559;SDS011;70065;42.700;23.316;2023-05-10T03:10:03;4.40;;;3.17;;
80559;SDS011;70065;42.700;23.316;2023-05-10T03:12:39;3.47;;;2.70;;
80559;SDS011;70065;42.700;23.316;2023-05-10T03:20:41;4.10;;;3.03;;
80559;SDS011;70065;42.700;23.316;2023-05-10T03:25:49;4.15;;;3.22;;
80559;SDS011;70065;42.700;23.316;2023-05-10T03:28:15;4.10;;;3.08;;
80559;SDS011;70065;42.700;23.316;2023-05-10T03:30:43;3.50;;;3.00;;
80559;SDS011;70065;42.700;23.316;2023-05-10T03:33:10;4.47;;;3.15;;
80559;SDS011;70065;42.700;23.316;2023-05-10T03:35:36;4.22;;;3.03;;
80559;SDS011;70065;42.700;23.316;2023-05-10T03:38:01;4.82;;;3.60;;
80559;SDS011;70065;42.700;23.316;2023-05-10T03:40:27;3.95;;;3.30;;
80559;SDS011;70065;42.700;23.316;2023-05-10T03:42:56;4.85;;;3.67;;
80559;SDS011;70065;42.700;23.316;2023-05-10T03:45:22;5.18;;;3.60;;
80559;SDS011;70065;42.700;23.316;2023-05-10T03:47:48;5.30;;;3.70;;
80559;SDS011;70065;42.700;23.316;2023-05-10T03:50:13;5.82;;;3.90;;
80559;SDS011;70065;42.700;23.316;2023-05-10T03:52:39;4.75;;;4.10;;
80559;SDS011;70065;42.700;23.316;2023-05-10T03:55:05;5.47;;;4.20;;
80559;SDS011;70065;42.700;23.316;2023-05-10T03:57:31;4.95;;;3.80;;
80559;SDS011;70065;42.700;23.316;2023-05-10T03:59:58;5.63;;;4.03;;
80559;SDS011;70065;42.700;23.316;2023-05-10T04:02:23;5.45;;;3.83;;
80559;SDS011;70065;42.700;23.316;2023-05-10T04:04:49;5.63;;;4.30;;
80559;SDS011;70065;42.700;23.316;2023-05-10T04:07:15;4.90;;;4.00;;
80559;SDS011;70065;42.700;23.316;2023-05-10T04:09:41;4.30;;;3.53;;
80559;SDS011;70065;42.700;23.316;2023-05-10T04:12:07;4.93;;;3.95;;
80559;SDS011;70065;42.700;23.316;2023-05-10T04:14:33;5.80;;;4.43;;
80559;SDS011;70065;42.700;23.316;2023-05-10T04:16:59;5.80;;;4.18;;
80559;SDS011;70065;42.700;23.316;2023-05-10T04:19:31;5.35;;;4.40;;
80559;SDS011;70065;42.700;23.316;2023-05-10T04:21:59;5.40;;;4.07;;
80559;SDS011;70065;42.700;23.316;2023-05-10T04:24:27;5.18;;;4.07;;
80559;SDS011;70065;42.700;23.316;2023-05-10T04:26:53;5.30;;;4.10;;
80559;SDS011;70065;42.700;23.316;2023-05-10T04:29:19;5.40;;;4.07;;
80559;SDS011;70065;42.700;23.316;2023-05-10T04:31:46;4.88;;;3.90;;
80559;SDS011;70065;42.700;23.316;2023-05-10T04:34:11;4.85;;;4.00;;
80559;SDS011;70065;42.700;23.316;2023-05-10T04:36:37;5.40;;;4.05;;
80559;SDS011;70065;42.700;23.316;2023-05-10T04:39:03;5.93;;;4.32;;
80559;SDS011;70065;42.700;23.316;2023-05-10T04:41:29;5.70;;;4.43;;
80559;SDS011;70065;42.700;23.316;2023-05-10T04:43:55;5.82;;;4.40;;
80559;SDS011;70065;42.700;23.316;2023-05-10T04:46:25;5.50;;;4.15;;
80559;SDS011;70065;42.700;23.316;2023-05-10T04:48:50;4.88;;;3.83;;
80559;SDS011;70065;42.700;23.316;2023-05-10T04:51:16;6.18;;;4.50;;
80559;SDS011;70065;42.700;23.316;2023-05-10T04:53:42;5.72;;;4.38;;
80559;SDS011;70065;42.700;23.316;2023-05-10T04:56:09;6.20;;;4.05;;
80559;SDS011;70065;42.700;23.316;2023-05-10T04:58:35;6.05;;;4.45;;
80559;SDS011;70065;42.700;23.316;2023-05-10T05:01:05;5.93;;;4.68;;
80559;SDS011;70065;42.700;23.316;2023-05-10T05:05:21;9.95;;;4.68;;
80559;SDS011;70065;42.700;23.316;2023-05-10T06:17:29;47.92;;;8.93;;
80559;SDS011;70065;42.700;23.316;2023-05-10T06:19:56;40.92;;;8.25;;
80559;SDS011;70065;42.700;23.316;2023-05-10T06:22:24;36.50;;;8.52;;
80559;SDS011;70065;42.700;23.316;2023-05-10T06:24:53;38.25;;;8.73;;
80559;SDS011;70065;42.700;23.316;2023-05-10T06:27:47;40.13;;;7.85;;
80559;SDS011;70065;42.700;23.316;2023-05-10T06:30:15;49.25;;;8.00;;
